Terminal Aerodrome Forecast
Issued by NWS

Home | Current Version | Previous Version | Text Only | Print | Product List | Glossary On
Versions: 1 2 3 4 5 6 7 8 9 10 11 12 13 14 15 16 17 18 19 20 21 22 23 24 25 26 27 28 29 30 31
000
FTUS41 KALY 312320
TAFPSF
TAF
KPSF 312320Z 0100/0124 30007KT P6SM SKC
     FM010300 00000KT 3SM BR SKC
      TEMPO 0103/0105 2SM BR
     FM010500 00000KT 1/2SM FG VV001
     FM011200 00000KT 3SM BR SCT001
     FM011300 29003KT P6SM SKC
     FM011700 29005KT P6SM FEW040=

USA.gov is the U.S. government's official web portal to all federal, state and local government web resources and services.